createdAt,value
2023-03-04T00:00:49.761Z,100239.73
2023-03-04T00:03:21.103Z,100239.42
2023-03-04T00:05:49.136Z,100237.19
2023-03-04T00:08:16.132Z,100238.13
2023-03-04T00:10:43.456Z,100236.16
2023-03-04T00:13:10.218Z,100228.99
2023-03-04T00:15:37.063Z,100226.59
2023-03-04T00:18:03.941Z,100225.28
2023-03-04T00:20:30.715Z,100224.29
2023-03-04T00:22:57.490Z,100220.80
2023-03-04T00:25:24.221Z,100219.15
2023-03-04T00:27:50.931Z,100213.95
2023-03-04T00:30:17.735Z,100209.38
2023-03-04T00:32:45.421Z,100214.45
2023-03-04T00:35:12.073Z,100211.23
2023-03-04T00:37:38.898Z,100215.38
2023-03-04T00:40:06.221Z,100207.54
2023-03-04T00:42:33.007Z,100205.56
2023-03-04T00:44:59.956Z,100200.73
2023-03-04T00:47:26.881Z,100195.23
2023-03-04T00:49:53.693Z,100194.56
2023-03-04T00:52:20.468Z,100193.85
2023-03-04T00:54:47.198Z,100193.85
2023-03-04T00:57:14.103Z,100191.70
2023-03-04T00:59:45.421Z,100192.70
2023-03-04T01:02:12.889Z,100191.52
2023-03-04T01:04:42.890Z,100185.35
2023-03-04T01:07:09.866Z,100184.89
2023-03-04T01:09:36.870Z,100187.55
2023-03-04T01:12:03.826Z,100185.70
2023-03-04T01:14:30.635Z,100184.98
2023-03-04T01:16:57.498Z,100177.59
2023-03-04T01:19:24.310Z,100172.40
2023-03-04T01:21:56.083Z,100173.59
2023-03-04T01:24:22.863Z,100173.20
2023-03-04T01:26:51.230Z,100172.87
2023-03-04T01:29:18.090Z,100167.25
2023-03-04T01:31:44.898Z,100166.52
2023-03-04T01:34:12.929Z,100163.14
2023-03-04T01:36:39.796Z,100161.15
2023-03-04T01:39:06.755Z,100160.64
2023-03-04T01:41:33.835Z,100155.79
2023-03-04T01:44:01.910Z,100156.35
2023-03-04T01:46:30.421Z,100153.83
2023-03-04T01:48:58.825Z,100151.35
2023-03-04T01:51:25.674Z,100149.16
2023-03-04T01:53:54.334Z,100144.09
2023-03-04T01:56:25.538Z,100145.63
2023-03-04T01:59:25.591Z,100139.41
2023-03-04T02:01:55.687Z,100135.88
2023-03-04T02:04:29.765Z,100131.55
2023-03-04T02:06:59.006Z,100133.42
2023-03-04T02:09:29.370Z,100132.52
2023-03-04T02:11:57.058Z,100132.10
2023-03-04T02:14:24.340Z,100128.46
2023-03-04T02:16:51.389Z,100125.80
2023-03-04T02:19:24.100Z,100122.48
2023-03-04T02:21:50.885Z,100118.14
2023-03-04T02:24:29.929Z,100119.89
2023-03-04T02:26:56.696Z,100117.84
2023-03-04T02:29:23.562Z,100114.36
2023-03-04T02:31:52.899Z,100113.48
2023-03-04T02:34:25.279Z,100112.35
2023-03-04T02:36:55.679Z,100110.59
2023-03-04T02:39:35.916Z,100110.84
2023-03-04T02:42:03.986Z,100110.98
2023-03-04T02:44:34.249Z,100108.15
2023-03-04T02:47:04.741Z,100101.12
2023-03-04T02:49:33.165Z,100101.79
2023-03-04T02:52:12.959Z,100101.00
2023-03-04T02:54:41.127Z,100098.33
2023-03-04T02:57:11.380Z,100099.17
2023-03-04T02:59:41.031Z,100095.78
2023-03-04T03:02:10.615Z,100095.95
2023-03-04T03:04:38.930Z,100092.61
2023-03-04T03:07:08.044Z,100091.42
2023-03-04T03:09:35.825Z,100093.98
2023-03-04T03:12:02.795Z,100091.91
2023-03-04T03:14:30.340Z,100088.60
2023-03-04T03:16:57.059Z,100092.02
2023-03-04T03:19:23.885Z,100088.64
2023-03-04T03:21:51.468Z,100089.45
2023-03-04T03:24:19.798Z,100089.83
2023-03-04T03:26:46.639Z,100088.09
2023-03-04T03:29:13.848Z,100087.29
2023-03-04T03:31:40.805Z,100085.00
2023-03-04T03:34:08.141Z,100084.42
2023-03-04T03:36:37.536Z,100085.80
2023-03-04T03:39:04.878Z,100087.11
2023-03-04T03:41:31.776Z,100086.27
2023-03-04T03:43:58.514Z,100088.00
2023-03-04T03:46:25.430Z,100084.54
2023-03-04T03:48:52.477Z,100085.80
2023-03-04T03:51:22.096Z,100083.39
2023-03-04T03:53:48.926Z,100083.24
2023-03-04T03:56:15.704Z,100082.60
2023-03-04T03:58:44.751Z,100078.52
2023-03-04T04:01:11.515Z,100074.45
2023-03-04T04:03:39.889Z,100072.25
2023-03-04T04:06:08.385Z,100071.63
2023-03-04T04:08:35.040Z,100071.13
2023-03-04T04:11:01.737Z,100067.41
2023-03-04T04:13:28.482Z,100064.65
2023-03-04T04:15:55.117Z,100061.88
2023-03-04T04:18:23.225Z,100059.95
2023-03-04T04:20:51.733Z,100060.27
2023-03-04T04:23:18.734Z,100058.30
2023-03-04T04:25:46.003Z,100057.77
2023-03-04T04:28:12.840Z,100054.67
2023-03-04T04:30:39.930Z,100051.48
2023-03-04T04:33:06.771Z,100052.19
2023-03-04T04:35:36.127Z,100049.81
2023-03-04T04:38:03.046Z,100047.45
2023-03-04T04:40:29.826Z,100044.60
2023-03-04T04:42:56.450Z,100045.61
2023-03-04T04:45:24.347Z,100048.70
2023-03-04T04:47:54.993Z,100048.22
2023-03-04T04:50:21.779Z,100048.92
2023-03-04T04:52:48.796Z,100049.66
2023-03-04T04:55:15.817Z,100049.80
2023-03-04T04:57:42.719Z,100046.31
2023-03-04T05:00:11.642Z,100043.57
2023-03-04T05:02:39.178Z,100039.27
2023-03-04T05:05:07.025Z,100042.63
2023-03-04T05:07:34.071Z,100045.29
2023-03-04T05:10:00.911Z,100047.39
2023-03-04T05:12:32.222Z,100051.08
2023-03-04T05:14:59.120Z,100054.91
2023-03-04T05:17:26.146Z,100052.70
2023-03-04T05:19:54.950Z,100054.23
2023-03-04T05:22:29.426Z,100055.22
2023-03-04T05:24:56.657Z,100053.59
2023-03-04T05:27:23.545Z,100048.98
2023-03-04T05:29:50.353Z,100046.22
2023-03-04T05:32:17.174Z,100045.00
2023-03-04T05:34:44.030Z,100046.48
2023-03-04T05:37:13.752Z,100046.40
2023-03-04T05:39:40.542Z,100051.13
2023-03-04T05:42:07.253Z,100054.00
2023-03-04T05:44:33.913Z,100060.46
2023-03-04T05:47:00.633Z,100059.65
2023-03-04T05:49:27.658Z,100058.75
2023-03-04T05:51:54.586Z,100056.71
2023-03-04T05:54:21.358Z,100055.14
2023-03-04T05:56:58.466Z,100050.80
2023-03-04T05:59:27.951Z,100046.05
2023-03-04T06:01:55.035Z,100047.13
2023-03-04T06:04:21.811Z,100046.05
2023-03-04T06:06:50.527Z,100048.58
2023-03-04T06:09:20.067Z,100051.34
2023-03-04T06:11:46.882Z,100057.86
2023-03-04T06:14:13.649Z,100063.08
2023-03-04T06:16:41.284Z,100065.67
2023-03-04T06:22:55.497Z,100060.05
2023-03-04T06:25:24.685Z,100058.28
2023-03-04T06:27:52.263Z,100061.90
2023-03-04T06:30:23.586Z,100065.34
2023-03-04T06:32:51.575Z,100066.60
2023-03-04T06:35:18.736Z,100068.23
2023-03-04T06:37:45.928Z,100072.29
2023-03-04T06:40:13.091Z,100072.75
2023-03-04T06:42:40.574Z,100075.73
2023-03-04T06:45:08.632Z,100068.00
2023-03-04T06:47:35.766Z,100070.55
2023-03-04T06:50:04.644Z,100068.74
2023-03-04T06:52:35.108Z,100067.54
2023-03-04T06:55:02.853Z,100070.59
2023-03-04T06:57:32.580Z,100069.84
2023-03-04T07:00:02.897Z,100068.79
2023-03-04T07:02:29.731Z,100071.59
2023-03-04T07:04:58.716Z,100065.09
2023-03-04T07:07:28.105Z,100061.58
2023-03-04T07:09:56.784Z,100064.52
2023-03-04T07:12:29.270Z,100062.25
2023-03-04T07:14:55.954Z,100059.96
2023-03-04T07:17:22.772Z,100056.30
2023-03-04T07:19:49.777Z,100051.51
2023-03-04T07:22:16.701Z,100052.44
2023-03-04T07:24:58.680Z,100057.10
2023-03-04T07:27:34.310Z,100062.19
2023-03-04T07:30:27.925Z,100068.45
2023-03-04T07:33:01.213Z,100071.79
2023-03-04T07:35:30.642Z,100069.64
2023-03-04T07:38:02.289Z,100067.54
2023-03-04T07:40:36.425Z,100065.16
2023-03-04T07:43:06.891Z,100067.23
2023-03-04T07:45:33.715Z,100063.95
2023-03-04T07:48:01.497Z,100064.31
2023-03-04T07:50:31.933Z,100069.48
2023-03-04T07:53:00.114Z,100069.52
2023-03-04T07:55:27.528Z,100070.34
2023-03-04T07:58:02.967Z,100072.15
2023-03-04T08:00:29.914Z,100072.48
2023-03-04T08:03:04.671Z,100074.98
2023-03-04T08:05:44.790Z,100073.85
2023-03-04T08:08:29.554Z,100072.42
2023-03-04T08:11:32.715Z,100072.17
2023-03-04T08:13:59.643Z,100073.52
2023-03-04T08:16:26.539Z,100074.69
2023-03-04T08:18:56.315Z,100082.16
2023-03-04T08:21:48.472Z,100078.27
2023-03-04T08:24:32.840Z,100078.69
2023-03-04T08:27:29.611Z,100077.45
2023-03-04T08:30:29.733Z,100086.92
2023-03-04T08:33:20.270Z,100087.66
2023-03-04T08:36:02.132Z,100088.05
2023-03-04T08:38:32.070Z,100085.98
2023-03-04T08:44:11.020Z,100073.46
2023-03-04T08:46:40.436Z,100074.16
2023-03-04T08:49:15.299Z,100069.72
2023-03-04T08:51:46.212Z,100066.64
2023-03-04T08:54:15.991Z,100066.02
2023-03-04T08:56:42.790Z,100063.93
2023-03-04T08:59:16.988Z,100059.91
2023-03-04T09:02:07.977Z,100060.89
2023-03-04T09:04:38.422Z,100055.30
2023-03-04T09:07:05.329Z,100055.10
2023-03-04T09:09:32.196Z,100049.44
2023-03-04T09:11:59.113Z,100042.70
2023-03-04T09:14:29.157Z,100044.60
2023-03-04T09:16:55.909Z,100046.98
2023-03-04T09:19:23.733Z,100046.67
2023-03-04T09:21:55.294Z,100047.19
2023-03-04T09:24:39.689Z,100044.95
2023-03-04T09:27:12.205Z,100042.45
2023-03-04T09:29:38.945Z,100040.70
2023-03-04T09:32:05.971Z,100037.80
2023-03-04T09:34:32.877Z,100037.45
2023-03-04T09:36:59.790Z,100034.59
2023-03-04T09:39:32.688Z,100028.86
2023-03-04T09:42:00.154Z,100029.90
2023-03-04T09:44:33.319Z,100034.00
2023-03-04T09:47:23.074Z,100028.27
2023-03-04T09:49:59.636Z,100024.58
2023-03-04T09:52:47.355Z,100019.80
2023-03-04T09:55:30.027Z,100021.14
2023-03-04T09:58:31.036Z,100020.03
2023-03-04T10:01:08.205Z,100018.04
2023-03-04T10:04:13.496Z,100008.23
2023-03-04T10:06:50.990Z,100008.70
2023-03-04T10:09:25.770Z,100003.84
2023-03-04T10:12:13.030Z,99996.35
2023-03-04T10:14:50.530Z,99992.67
2023-03-04T10:17:37.544Z,99985.39
2023-03-04T10:20:12.750Z,99981.25
2023-03-04T10:22:57.671Z,99976.27
2023-03-04T10:25:32.538Z,99976.64
2023-03-04T10:28:10.709Z,99971.98
2023-03-04T10:30:59.713Z,99972.80
2023-03-04T10:33:34.665Z,99967.50
2023-03-04T10:36:25.874Z,99965.08
2023-03-04T10:39:20.256Z,99955.86
2023-03-04T10:41:57.979Z,99947.80
2023-03-04T10:44:25.823Z,99951.27
2023-03-04T10:46:57.364Z,99947.09
2023-03-04T10:49:26.419Z,99938.75
2023-03-04T10:52:18.777Z,99940.73
2023-03-04T10:54:53.267Z,99935.31
2023-03-04T10:57:24.902Z,99931.99
2023-03-04T11:00:00.537Z,99929.05
2023-03-04T11:02:30.749Z,99923.93
2023-03-04T11:05:05.714Z,99924.44
2023-03-04T11:07:53.907Z,99918.49
2023-03-04T11:10:22.420Z,99911.13
2023-03-04T11:12:58.442Z,99899.89
2023-03-04T11:15:30.608Z,99891.23
2023-03-04T11:18:02.180Z,99890.48
2023-03-04T11:20:38.374Z,99889.44
2023-03-04T11:23:15.189Z,99883.96
2023-03-04T11:25:49.804Z,99878.05
2023-03-04T11:28:17.168Z,99875.62
2023-03-04T11:30:52.049Z,99872.12
2023-03-04T11:33:42.141Z,99871.13
2023-03-04T11:36:42.766Z,99866.65
2023-03-04T11:39:23.710Z,99866.36
2023-03-04T11:42:29.317Z,99863.98
2023-03-04T11:45:01.320Z,99859.56
2023-03-04T11:51:21.379Z,99856.58
2023-03-04T11:54:25.548Z,99852.44
2023-03-04T11:57:24.711Z,99849.48
2023-03-04T12:00:16.620Z,99847.40
2023-03-04T12:02:57.548Z,99839.30
2023-03-04T12:05:47.648Z,99833.84
2023-03-04T12:08:37.911Z,99831.27
2023-03-04T12:11:34.366Z,99832.95
2023-03-04T12:14:16.706Z,99827.58
2023-03-04T12:16:53.373Z,99820.23
2023-03-04T12:19:27.198Z,99822.39
2023-03-04T12:22:20.215Z,99818.52
2023-03-04T12:25:25.553Z,99815.34
2023-03-04T12:28:11.797Z,99813.21
2023-03-04T12:30:54.974Z,99812.95
2023-03-04T12:34:05.514Z,99804.27
2023-03-04T12:37:00.418Z,99799.33
2023-03-04T12:39:30.173Z,99798.45
2023-03-04T12:42:27.767Z,99793.58
2023-03-04T12:45:13.322Z,99792.73
2023-03-04T12:48:09.035Z,99795.66
2023-03-04T12:50:58.413Z,99788.77
2023-03-04T12:54:00.114Z,99780.86
2023-03-04T12:56:44.081Z,99777.31
2023-03-04T12:59:20.518Z,99776.81
2023-03-04T13:01:57.442Z,99771.59
2023-03-04T13:05:10.505Z,99773.73
2023-03-04T13:07:49.281Z,99763.59
2023-03-04T13:10:20.274Z,99757.02
2023-03-04T13:12:59.448Z,99751.54
2023-03-04T13:15:40.331Z,99747.36
2023-03-04T13:18:39.291Z,99743.52
2023-03-04T13:21:24.395Z,99740.36
2023-03-04T13:23:56.741Z,99732.17
2023-03-04T13:26:37.579Z,99730.48
2023-03-04T13:29:41.290Z,99721.42
2023-03-04T13:32:11.807Z,99718.77
2023-03-04T13:34:48.378Z,99714.45
2023-03-04T13:37:34.843Z,99711.10
2023-03-04T13:40:36.593Z,99710.05
2023-03-04T13:43:49.215Z,99704.58
2023-03-04T13:46:23.481Z,99703.27
2023-03-04T13:49:12.505Z,99701.27
2023-03-04T13:51:44.289Z,99694.27
2023-03-04T13:54:30.234Z,99692.37
2023-03-04T13:57:06.319Z,99689.63
2023-03-04T13:59:59.462Z,99686.37
2023-03-04T14:02:39.335Z,99683.12
2023-03-04T14:05:07.789Z,99678.36
2023-03-04T14:07:36.490Z,99671.07
2023-03-04T14:10:07.742Z,99666.80
2023-03-04T14:12:42.437Z,99661.98
2023-03-04T14:15:22.606Z,99659.52
2023-03-04T14:17:53.026Z,99659.92
2023-03-04T14:20:45.536Z,99658.30
2023-03-04T14:23:35.097Z,99658.42
2023-03-04T14:26:14.305Z,99655.41
2023-03-04T14:28:48.741Z,99652.48
2023-03-04T14:31:21.128Z,99650.89
2023-03-04T14:33:53.739Z,99649.38
2023-03-04T14:36:25.703Z,99645.48
2023-03-04T14:38:58.381Z,99642.00
2023-03-04T14:41:35.289Z,99637.14
2023-03-04T14:44:26.166Z,99632.79
2023-03-04T14:47:07.467Z,99628.50
2023-03-04T14:49:39.198Z,99627.13
2023-03-04T14:52:06.790Z,99623.84
2023-03-04T14:54:58.843Z,99621.37
2023-03-04T14:57:31.787Z,99618.65
2023-03-04T15:00:21.220Z,99617.66
2023-03-04T15:02:52.596Z,99609.80
2023-03-04T15:05:31.371Z,99607.40
2023-03-04T15:08:34.559Z,99603.02
2023-03-04T15:11:16.702Z,99600.40
2023-03-04T15:13:49.800Z,99597.72
2023-03-04T15:16:22.432Z,99591.84
2023-03-04T15:18:59.403Z,99590.52
2023-03-04T15:21:37.738Z,99591.63
2023-03-04T15:24:07.862Z,99593.17
2023-03-04T15:26:39.647Z,99596.13
2023-03-04T15:29:14.584Z,99592.34
2023-03-04T15:31:43.031Z,99589.84
2023-03-04T15:34:17.994Z,99590.19
2023-03-04T15:36:46.767Z,99589.24
2023-03-04T15:39:16.025Z,99587.83
2023-03-04T15:41:43.093Z,99584.63
2023-03-04T15:44:11.684Z,99580.63
2023-03-04T15:46:38.327Z,99585.52
2023-03-04T15:49:05.066Z,99584.66
2023-03-04T15:51:31.790Z,99580.78
2023-03-04T15:54:00.136Z,99574.36
2023-03-04T15:56:29.693Z,99572.93
2023-03-04T15:59:01.741Z,99571.40
2023-03-04T16:01:28.488Z,99566.39
2023-03-04T16:03:55.126Z,99558.68
2023-03-04T16:06:30.199Z,99558.89
2023-03-04T16:08:58.497Z,99560.50
2023-03-04T16:11:27.946Z,99561.25
2023-03-04T16:13:55.051Z,99560.50
2023-03-04T16:16:21.657Z,99565.39
2023-03-04T16:18:48.516Z,99566.95
2023-03-04T16:21:22.664Z,99566.77
2023-03-04T16:23:51.274Z,99568.05
2023-03-04T16:26:20.984Z,99571.09
2023-03-04T16:28:48.213Z,99576.69
2023-03-04T16:31:15.847Z,99579.73
2023-03-04T16:33:44.366Z,99580.20
2023-03-04T16:36:20.695Z,99583.27
2023-03-04T16:38:48.604Z,99582.63
2023-03-04T16:41:17.080Z,99587.61
2023-03-04T16:43:43.844Z,99586.17
2023-03-04T16:46:12.751Z,99586.96
2023-03-04T16:48:40.270Z,99594.23
2023-03-04T16:51:16.419Z,99599.89
2023-03-04T16:53:47.975Z,99600.16
2023-03-04T16:56:19.276Z,99604.55
2023-03-04T16:58:46.722Z,99605.01
2023-03-04T17:01:22.757Z,99606.95
2023-03-04T17:03:49.577Z,99605.13
2023-03-04T17:06:16.799Z,99604.32
2023-03-04T17:08:43.892Z,99604.10
2023-03-04T17:11:14.509Z,99602.31
2023-03-04T17:13:41.143Z,99603.94
2023-03-04T17:16:07.969Z,99602.66
2023-03-04T17:18:34.750Z,99599.37
2023-03-04T17:21:03.880Z,99597.77
2023-03-04T17:23:30.664Z,99597.19
2023-03-04T17:26:00.874Z,99596.70
2023-03-04T17:28:31.959Z,99593.23
2023-03-04T17:30:59.737Z,99595.07
2023-03-04T17:33:26.649Z,99592.78
2023-03-04T17:35:53.538Z,99590.56
2023-03-04T17:38:20.503Z,99593.39
2023-03-04T17:40:47.290Z,99590.63
2023-03-04T17:43:16.333Z,99589.46
2023-03-04T17:45:43.835Z,99589.00
2023-03-04T17:48:14.514Z,99585.45
2023-03-04T17:50:53.091Z,99583.39
2023-03-04T17:53:20.027Z,99579.14
2023-03-04T17:55:59.634Z,99581.22
2023-03-04T17:58:27.959Z,99577.33
2023-03-04T18:01:02.180Z,99571.15
2023-03-04T18:03:29.490Z,99569.09
2023-03-04T18:05:56.936Z,99566.88
2023-03-04T18:08:24.193Z,99567.73
2023-03-04T18:10:51.206Z,99567.40
2023-03-04T18:13:18.037Z,99565.23
2023-03-04T18:15:47.089Z,99566.41
2023-03-04T18:18:13.941Z,99565.42
2023-03-04T18:20:40.730Z,99573.20
2023-03-04T18:23:07.935Z,99574.02
2023-03-04T18:25:47.710Z,99568.74
2023-03-04T18:28:31.098Z,99569.64
2023-03-04T18:31:11.700Z,99569.82
2023-03-04T18:33:52.113Z,99567.52
2023-03-04T18:36:30.315Z,99568.33
2023-03-04T18:39:15.374Z,99570.73
2023-03-04T18:41:47.772Z,99571.42
2023-03-04T18:44:17.826Z,99575.36
2023-03-04T18:46:53.577Z,99575.72
2023-03-04T18:49:50.967Z,99579.75
2023-03-04T18:52:46.397Z,99580.84
2023-03-04T18:55:26.345Z,99580.80
2023-03-04T18:58:00.325Z,99584.16
2023-03-04T19:00:35.834Z,99583.72
2023-03-04T19:03:12.866Z,99579.06
2023-03-04T19:05:49.265Z,99579.70
2023-03-04T19:08:16.870Z,99576.80
2023-03-04T19:10:44.555Z,99576.58
2023-03-04T19:13:17.932Z,99580.36
2023-03-04T19:15:57.676Z,99579.16
2023-03-04T19:18:41.346Z,99581.83
2023-03-04T19:21:13.166Z,99581.41
2023-03-04T19:23:49.057Z,99579.73
2023-03-04T19:26:21.299Z,99578.35
2023-03-04T19:28:53.891Z,99579.40
2023-03-04T19:31:34.347Z,99578.89
2023-03-04T19:34:17.825Z,99585.73
2023-03-04T19:36:48.822Z,99588.58
2023-03-04T19:39:18.038Z,99586.49
2023-03-04T19:41:48.336Z,99583.84
2023-03-04T19:44:36.429Z,99584.69
2023-03-04T19:47:39.787Z,99581.95
2023-03-04T19:50:39.197Z,99585.96
2023-03-04T19:53:20.422Z,99593.03
2023-03-04T19:55:57.435Z,99592.31
2023-03-04T19:58:27.479Z,99591.95
2023-03-04T20:00:57.640Z,99595.03
2023-03-04T20:03:30.186Z,99590.66
2023-03-04T20:06:07.029Z,99592.80
2023-03-04T20:08:59.279Z,99593.69
2023-03-04T20:11:31.652Z,99591.58
2023-03-04T20:14:04.340Z,99595.20
2023-03-04T20:16:38.276Z,99597.95
2023-03-04T20:19:10.222Z,99598.85
2023-03-04T20:22:33.406Z,99592.83
2023-03-04T20:29:43.825Z,99609.14
2023-03-04T20:32:13.390Z,99613.97
2023-03-04T20:34:47.533Z,99612.60
2023-03-04T20:37:34.644Z,99606.77
2023-03-04T20:40:13.478Z,99599.67
2023-03-04T20:42:42.941Z,99597.12
2023-03-04T20:45:10.641Z,99596.76
2023-03-04T20:47:39.811Z,99602.86
2023-03-04T20:50:06.992Z,99597.52
2023-03-04T20:52:33.841Z,99593.36
2023-03-04T20:55:00.560Z,99597.00
2023-03-04T20:57:29.713Z,99595.27
2023-03-04T20:59:56.419Z,99598.11
2023-03-04T21:02:24.868Z,99597.76
2023-03-04T21:04:51.566Z,99598.46
2023-03-04T21:07:18.272Z,99592.05
2023-03-04T21:09:45.169Z,99587.92
2023-03-04T21:12:11.978Z,99585.73
2023-03-04T21:14:39.093Z,99588.02
2023-03-04T21:17:06.530Z,99589.25
2023-03-04T21:19:36.138Z,99581.70
2023-03-04T21:22:03.550Z,99579.50
2023-03-04T21:24:33.307Z,99575.41
2023-03-04T21:27:04.201Z,99576.30
2023-03-04T21:29:36.122Z,99583.45
2023-03-04T21:32:23.328Z,99584.13
2023-03-04T21:34:55.366Z,99584.27
2023-03-04T21:37:26.518Z,99580.88
2023-03-04T21:39:55.817Z,99585.60
2023-03-04T21:42:22.794Z,99586.41
2023-03-04T21:44:52.175Z,99587.60
2023-03-04T21:47:20.527Z,99586.04
2023-03-04T21:49:48.014Z,99584.94
2023-03-04T21:52:15.041Z,99584.83
2023-03-04T21:54:44.057Z,99587.64
2023-03-04T21:57:10.899Z,99587.02
2023-03-04T21:59:38.505Z,99591.05
2023-03-04T22:02:07.371Z,99589.94
2023-03-04T22:04:34.950Z,99593.72
2023-03-04T22:07:01.737Z,99596.45
2023-03-04T22:09:34.129Z,99599.64
2023-03-04T22:12:05.526Z,99597.73
2023-03-04T22:14:33.572Z,99596.69
2023-03-04T22:17:00.481Z,99596.86
2023-03-04T22:19:31.116Z,99600.10
2023-03-04T22:22:03.165Z,99601.29
2023-03-04T22:24:33.592Z,99602.66
2023-03-04T22:27:06.582Z,99601.30
2023-03-04T22:29:36.460Z,99605.65
2023-03-04T22:32:10.858Z,99606.27
2023-03-04T22:34:43.361Z,99609.08
2023-03-04T22:37:32.788Z,99609.67
2023-03-04T22:40:08.990Z,99615.77
2023-03-04T22:47:29.904Z,99620.88
2023-03-04T22:49:56.861Z,99619.23
2023-03-04T22:52:43.214Z,99619.73
2023-03-04T22:55:12.304Z,99622.55
2023-03-04T22:57:42.504Z,99624.41
2023-03-04T23:00:23.191Z,99620.63
2023-03-04T23:02:55.023Z,99622.02
2023-03-04T23:05:23.378Z,99617.77
2023-03-04T23:07:51.011Z,99621.37
2023-03-04T23:10:26.717Z,99622.58
2023-03-04T23:12:53.920Z,99619.55
2023-03-04T23:15:22.970Z,99620.15
2023-03-04T23:17:52.273Z,99623.16
2023-03-04T23:20:22.750Z,99620.63
2023-03-04T23:22:53.369Z,99620.52
2023-03-04T23:25:22.120Z,99623.23
2023-03-04T23:27:51.969Z,99627.65
2023-03-04T23:30:18.872Z,99628.35
2023-03-04T23:32:45.807Z,99627.98
2023-03-04T23:35:17.760Z,99628.47
2023-03-04T23:37:45.751Z,99633.11
2023-03-04T23:40:15.331Z,99631.86
2023-03-04T23:42:42.100Z,99634.97
2023-03-04T23:45:10.522Z,99632.92
2023-03-04T23:47:37.312Z,99629.08
2023-03-04T23:50:08.788Z,99626.07
2023-03-04T23:52:40.250Z,99626.04
2023-03-04T23:55:07.300Z,99624.92
2023-03-04T23:57:34.213Z,99626.76
